Chautauqua County-Jamestown Airport
KJHW : now visible

Airfield :











YOU CAN JOIN US ON...

 
LOGIN :

Register | Disclaimer

   EN    FR    IT 

 









Legend :    VFR   Marginal VFR   IFR   Intensive IFR   Very Intensive IFR
Visi :
Ceiling :
>= 8 km
>= 3000ft
5 to 8 km
1000 to 3000 ft
1500m to 5 km
500 to 1000 ft
800 to 1500m
200 to 500 ft
< 800m
< 200 ft
Symbols :   Thunderstorms  Fog  Heavy snow  Heavy precipitations  Wind > 20 kt






- Airport Elevation : 1723 ft


KJHW - Chautauqua County-Jamestown

CURRENT METAR :
  • 141656Z AUTO 21008KT 10SM OVC080 M01/M06 A3013 RMK AO2 UPB38E48 SLPNO P0003 T10111061 FZRANO

EXPIRED METARs :
  • 141556Z AUTO 20010KT 10SM M02/M06 A3015 RMK AO2 SLPNO T10221061 FZRANO

TAF KJHW
Valid from the 14 at 18:00 until the 15 at 18:00 UTC


141723Z 1418/1518 22009KT P6SM OVC080
FM150200 22008KT P6SM SCT090
FM150800 23010KT P6SM BKN015
FM151300 23010G16KT P6SM BKN012



MET'MAP, your aeronautical weather chart ! - Copyright ORBIFLY December 2007 - Disclaimer

ORBIFLY MET'MAP TEAM :

Programming & Development : Alexandra Zaïnal
Concept & Development : Baudouin d'Aumeries
Co-Development & Prog : Marc-Olivier Méhu
Technical & hardware support : Manuel Goepfert

Contact : metmap@orbifly.com




SOURCES & CREDITS :

   NOAA       Earth
Advisory